Rawson, North Dakota
Current Conditions -  °F | °C
As of 8:55 PM on Monday 22 Dec 2014 (Local Time) from KS25 Reporting Station
Haze Haze  
Wind Chill: 13°   Ceiling: 400
Heat Index: 25°   Visibility: 5mi
Dew Point: 25°   Wind: 14mph
Humidity: 100%   Direction: 330°NNW
Pressure: 29.82"   Gusts: 21mph
Location:  47.8581°N, 103.643°W
Report Text: KS25 230255Z AUTO 33012G18KT 5SM BR OVC004 M04/M04 A2982 RMK AO2
Loading
Personal Weather Stations






























Interactive Weather Map New forecast layout! Learn more

10-Day Weather Forecast

Advertisements
Track Severe Weather on mobile